PWSweather.com
Personal Weather Stations
Station Observations
KMIEASTT1
Tawas Bay, East Tawas, MI 48730

Tawas BayEast Tawas, MI 48730

Lat: 44.28, Lon: -83.48

Elevation: 600

Station Type: Davis VantagePro

http://www.tawasbayweather.com

High Low Average
Temperature 16.6°F-8.6°C 4.0°F-15.6°C 12.6°F-10.8°C
Dew Point 13.7°F-10.2°C 0.8°F-17.3°C 8.9°F-12.8°C
Winds 13.0 mph 20.9 kmh Calm Calm 2.0 mph S3.2 kmh S
Wind Gusts 20.0 mph32.2 kmh 2.0 mph3.2 kmh 8.0 mph12.9 kmh
Humidity 90% 74% 85%
Pressure 30.39 in1029.1 mb 30.14 in1020.7 mb -
Precipitation 0.00 in0.0 mm - -
Hour Temp Dew Point Humidity Winds Wind Gusts Pressure Precip Precip Rate Daily Precip Total
12:00 AM 13.6°F-10.2°C 7.2°F-13.8°C 75% Calm Calm 8.0 mph12.9 kmh 30.38 in1028.8 mb 0.00 in0.0 mm 0.00 in0.0 mm 0.00 in0.0 mm
12:15 AM 13.6°F-10.2°C 7.2°F-13.8°C 75% Calm Calm 9.0 mph14.5 kmh 30.38 in1028.8 mb 0.00 in0.0 mm 0.00 in0.0 mm 0.00 in0.0 mm
12:30 AM 13.4°F-10.3°C 6.7°F-14.1°C 74% Calm Calm 7.0 mph11.3 kmh 30.39 in1029.1 mb 0.00 in0.0 mm 0.00 in0.0 mm 0.00 in0.0 mm
12:45 AM 13.4°F-10.3°C 6.7°F-14.1°C 74% 5.0 mph NNW8.0 kmh NNW 5.0 mph8.0 kmh 30.38 in1028.8 mb 0.00 in0.0 mm 0.00 in0.0 mm 0.00 in0.0 mm
01:00 AM 13.4°F-10.3°C 6.7°F-14.1°C 74% Calm Calm 6.0 mph9.7 kmh 30.39 in1029.1 mb 0.00 in0.0 mm 0.00 in0.0 mm 0.00 in0.0 mm
01:15 AM 13.4°F-10.3°C 6.7°F-14.1°C 74% 1.0 mph N1.6 kmh N 6.0 mph9.7 kmh 30.39 in1029.1 mb 0.00 in0.0 mm 0.00 in0.0 mm 0.00 in0.0 mm
01:30 AM 13.3°F-10.4°C 6.6°F-14.1°C 74% Calm Calm 6.0 mph9.7 kmh 30.38 in1028.8 mb 0.00 in0.0 mm 0.00 in0.0 mm 0.00 in0.0 mm
01:45 AM 13.2°F-10.4°C 6.5°F-14.2°C 74% 1.0 mph NNW1.6 kmh NNW 7.0 mph11.3 kmh 30.38 in1028.8 mb 0.00 in0.0 mm 0.00 in0.0 mm 0.00 in0.0 mm
02:00 AM 13.3°F-10.4°C 6.9°F-13.9°C 75% 5.0 mph NW8.0 kmh NW 5.0 mph8.0 kmh 30.37 in1028.4 mb 0.00 in0.0 mm 0.00 in0.0 mm 0.00 in0.0 mm
02:15 AM 13.2°F-10.4°C 6.8°F-14.0°C 75% 1.0 mph N1.6 kmh N 7.0 mph11.3 kmh 30.37 in1028.4 mb 0.00 in0.0 mm 0.00 in0.0 mm 0.00 in0.0 mm
02:30 AM 13.1°F-10.5°C 6.7°F-14.1°C 75% Calm Calm 7.0 mph11.3 kmh 30.37 in1028.4 mb 0.00 in0.0 mm 0.00 in0.0 mm 0.00 in0.0 mm
02:45 AM 13.1°F-10.5°C 7.0°F-13.9°C 76% 3.0 mph N4.8 kmh N 8.0 mph12.9 kmh 30.36 in1028.1 mb 0.00 in0.0 mm 0.00 in0.0 mm 0.00 in0.0 mm
03:00 AM 12.8°F-10.7°C 7.3°F-13.7°C 78% 1.0 mph N1.6 kmh N 10.0 mph16.1 kmh 30.35 in1027.8 mb 0.00 in0.0 mm 0.00 in0.0 mm 0.00 in0.0 mm
03:15 AM 12.8°F-10.7°C 7.8°F-13.4°C 80% 1.0 mph N1.6 kmh N 9.0 mph14.5 kmh 30.35 in1027.8 mb 0.00 in0.0 mm 0.00 in0.0 mm 0.00 in0.0 mm
03:30 AM 12.8°F-10.7°C 8.4°F-13.1°C 82% 2.0 mph N3.2 kmh N 9.0 mph14.5 kmh 30.34 in1027.4 mb 0.00 in0.0 mm 0.00 in0.0 mm 0.00 in0.0 mm
03:45 AM 13.1°F-10.5°C 10.0°F-12.2°C 87% 13.0 mph S20.9 kmh S 18.0 mph29.0 kmh 30.34 in1027.4 mb 0.00 in0.0 mm 0.00 in0.0 mm 0.00 in0.0 mm
04:00 AM 13.5°F-10.3°C 10.6°F-11.9°C 88% 11.0 mph SSE17.7 kmh SSE 19.0 mph30.6 kmh 30.34 in1027.4 mb 0.00 in0.0 mm 0.00 in0.0 mm 0.00 in0.0 mm
04:15 AM 13.9°F-10.1°C 11.0°F-11.7°C 88% 8.0 mph SSE12.9 kmh SSE 13.0 mph20.9 kmh 30.34 in1027.4 mb 0.00 in0.0 mm 0.00 in0.0 mm 0.00 in0.0 mm
04:30 AM 14.4°F-9.8°C 11.5°F-11.4°C 88% 7.0 mph SSE11.3 kmh SSE 13.0 mph20.9 kmh 30.34 in1027.4 mb 0.00 in0.0 mm 0.00 in0.0 mm 0.00 in0.0 mm
04:45 AM 14.8°F-9.6°C 12.2°F-11.0°C 89% 11.0 mph S17.7 kmh S 20.0 mph32.2 kmh 30.34 in1027.4 mb 0.00 in0.0 mm 0.00 in0.0 mm 0.00 in0.0 mm
05:00 AM 14.6°F-9.7°C 11.4°F-11.4°C 87% Calm Calm 2.0 mph3.2 kmh 30.34 in1027.4 mb 0.00 in0.0 mm 0.00 in0.0 mm 0.00 in0.0 mm
05:15 AM 15.0°F-9.4°C 12.1°F-11.1°C 88% Calm Calm 6.0 mph9.7 kmh 30.35 in1027.8 mb 0.00 in0.0 mm 0.00 in0.0 mm 0.00 in0.0 mm
05:30 AM 15.4°F-9.2°C 12.5°F-10.8°C 88% 1.0 mph NNW1.6 kmh NNW 3.0 mph4.8 kmh 30.35 in1027.8 mb 0.00 in0.0 mm 0.00 in0.0 mm 0.00 in0.0 mm
05:45 AM 15.5°F-9.2°C 12.8°F-10.7°C 89% Calm Calm 4.0 mph6.4 kmh 30.35 in1027.8 mb 0.00 in0.0 mm 0.00 in0.0 mm 0.00 in0.0 mm
06:00 AM 15.4°F-9.2°C 12.7°F-10.7°C 89% Calm Calm 2.0 mph3.2 kmh 30.35 in1027.8 mb 0.00 in0.0 mm 0.00 in0.0 mm 0.00 in0.0 mm
06:15 AM 15.6°F-9.1°C 12.9°F-10.6°C 89% Calm Calm 3.0 mph4.8 kmh 30.35 in1027.8 mb 0.01 in0.3 mm 0.04 in1.0 mm 0.01 in0.3 mm
06:30 AM 15.5°F-9.2°C 12.8°F-10.7°C 89% Calm Calm 5.0 mph8.0 kmh 30.33 in1027.1 mb 0.01 in0.3 mm 0.00 in0.0 mm 0.01 in0.3 mm
06:45 AM 15.5°F-9.2°C 12.8°F-10.7°C 89% Calm Calm 2.0 mph3.2 kmh 30.33 in1027.1 mb 0.01 in0.3 mm 0.00 in0.0 mm 0.01 in0.3 mm
07:00 AM 15.5°F-9.2°C 12.8°F-10.7°C 89% 1.0 mph NE1.6 kmh NE 6.0 mph9.7 kmh 30.33 in1027.1 mb 0.01 in0.3 mm 0.00 in0.0 mm 0.01 in0.3 mm
07:15 AM 15.4°F-9.2°C 12.7°F-10.7°C 89% 6.0 mph NE9.7 kmh NE 7.0 mph11.3 kmh 30.32 in1026.8 mb 0.02 in0.5 mm 0.04 in1.0 mm 0.02 in0.5 mm
07:30 AM 15.3°F-9.3°C 12.7°F-10.7°C 89% 3.0 mph NNE4.8 kmh NNE 7.0 mph11.3 kmh 30.31 in1026.4 mb 0.01 in0.3 mm 0.00 in0.0 mm 0.02 in0.5 mm
07:45 AM 15.2°F-9.3°C 12.6°F-10.8°C 89% Calm Calm 7.0 mph11.3 kmh 30.30 in1026.1 mb 0.01 in0.3 mm 0.00 in0.0 mm 0.02 in0.5 mm
08:00 AM 15.1°F-9.4°C 12.5°F-10.8°C 89% Calm Calm 9.0 mph14.5 kmh 30.30 in1026.1 mb 0.01 in0.3 mm 0.00 in0.0 mm 0.02 in0.5 mm
08:15 AM 15.2°F-9.3°C 12.6°F-10.8°C 89% Calm Calm 6.0 mph9.7 kmh 30.30 in1026.1 mb 0.01 in0.3 mm 0.00 in0.0 mm 0.02 in0.5 mm
08:30 AM 15.2°F-9.3°C 12.6°F-10.8°C 89% Calm Calm 7.0 mph11.3 kmh 30.31 in1026.4 mb 0.00 in0.0 mm 0.00 in0.0 mm 0.02 in0.5 mm
08:45 AM 15.2°F-9.3°C 12.6°F-10.8°C 89% Calm Calm 6.0 mph9.7 kmh 30.30 in1026.1 mb 0.00 in0.0 mm 0.00 in0.0 mm 0.02 in0.5 mm
09:00 AM 15.3°F-9.3°C 12.7°F-10.7°C 89% Calm Calm 9.0 mph14.5 kmh 30.30 in1026.1 mb 0.00 in0.0 mm 0.00 in0.0 mm 0.02 in0.5 mm
09:15 AM 15.3°F-9.3°C 12.7°F-10.7°C 89% Calm Calm 6.0 mph9.7 kmh 30.30 in1026.1 mb 0.00 in0.0 mm 0.00 in0.0 mm 0.02 in0.5 mm
09:30 AM 15.6°F-9.1°C 12.9°F-10.6°C 89% Calm Calm 3.0 mph4.8 kmh 30.31 in1026.4 mb 0.01 in0.3 mm 0.04 in1.0 mm 0.03 in0.8 mm
09:45 AM 15.9°F-8.9°C 13.2°F-10.4°C 89% Calm Calm 8.0 mph12.9 kmh 30.31 in1026.4 mb 0.01 in0.3 mm 0.00 in0.0 mm 0.03 in0.8 mm
10:00 AM 16.0°F-8.9°C 13.3°F-10.4°C 89% 3.0 mph N4.8 kmh N 8.0 mph12.9 kmh 30.31 in1026.4 mb 0.01 in0.3 mm 0.00 in0.0 mm 0.03 in0.8 mm
10:15 AM 15.7°F-9.1°C 13.0°F-10.6°C 89% 3.0 mph NNW4.8 kmh NNW 9.0 mph14.5 kmh 30.31 in1026.4 mb 0.02 in0.5 mm 0.04 in1.0 mm 0.04 in1.0 mm
10:30 AM 15.6°F-9.1°C 13.2°F-10.4°C 90% Calm Calm 11.0 mph17.7 kmh 30.30 in1026.1 mb 0.01 in0.3 mm 0.00 in0.0 mm 0.04 in1.0 mm
10:45 AM 15.4°F-9.2°C 12.7°F-10.7°C 89% 1.0 mph NE1.6 kmh NE 6.0 mph9.7 kmh 30.30 in1026.1 mb 0.01 in0.3 mm 0.00 in0.0 mm 0.04 in1.0 mm
11:00 AM 15.5°F-9.2°C 12.8°F-10.7°C 89% 3.0 mph NNE4.8 kmh NNE 6.0 mph9.7 kmh 30.29 in1025.7 mb 0.01 in0.3 mm 0.00 in0.0 mm 0.04 in1.0 mm
11:15 AM 15.5°F-9.2°C 12.8°F-10.7°C 89% 3.0 mph NE4.8 kmh NE 9.0 mph14.5 kmh 30.30 in1026.1 mb 0.02 in0.5 mm 0.04 in1.0 mm 0.05 in1.3 mm
11:30 AM 15.3°F-9.3°C 12.7°F-10.7°C 89% 5.0 mph NE8.0 kmh NE 9.0 mph14.5 kmh 30.30 in1026.1 mb 0.01 in0.3 mm 0.00 in0.0 mm 0.05 in1.3 mm
11:45 AM 15.8°F-9.0°C 12.9°F-10.6°C 88% 3.0 mph NNW4.8 kmh NNW 9.0 mph14.5 kmh 30.29 in1025.7 mb 0.02 in0.5 mm 0.04 in1.0 mm 0.06 in1.5 mm
12:00 PM 15.6°F-9.1°C 12.9°F-10.6°C 89% Calm Calm 8.0 mph12.9 kmh 30.29 in1025.7 mb 0.02 in0.5 mm 0.00 in0.0 mm 0.06 in1.5 mm
12:15 PM 15.7°F-9.1°C 13.3°F-10.4°C 90% Calm Calm 7.0 mph11.3 kmh 30.29 in1025.7 mb 0.03 in0.8 mm 0.04 in1.0 mm 0.07 in1.8 mm
12:30 PM 15.5°F-9.2°C 12.8°F-10.7°C 89% 3.0 mph ENE4.8 kmh ENE 6.0 mph9.7 kmh 30.29 in1025.7 mb 0.02 in0.5 mm 0.00 in0.0 mm 0.07 in1.8 mm
12:45 PM 15.9°F-8.9°C 13.0°F-10.6°C 88% Calm Calm 6.0 mph9.7 kmh 30.28 in1025.4 mb 0.02 in0.5 mm 0.00 in0.0 mm 0.07 in1.8 mm
01:00 PM 16.6°F-8.6°C 13.7°F-10.2°C 88% Calm Calm 8.0 mph12.9 kmh 30.28 in1025.4 mb 0.02 in0.5 mm 0.00 in0.0 mm 0.07 in1.8 mm
01:15 PM 16.2°F-8.8°C 13.3°F-10.4°C 88% Calm Calm 5.0 mph8.0 kmh 30.27 in1025.1 mb 0.02 in0.5 mm 0.00 in0.0 mm 0.07 in1.8 mm
01:30 PM 15.6°F-9.1°C 12.4°F-10.9°C 87% 2.0 mph N3.2 kmh N 8.0 mph12.9 kmh 30.26 in1024.7 mb 0.01 in0.3 mm 0.00 in0.0 mm 0.07 in1.8 mm
01:45 PM 15.7°F-9.1°C 12.5°F-10.8°C 87% 1.0 mph ENE1.6 kmh ENE 7.0 mph11.3 kmh 30.25 in1024.4 mb 0.01 in0.3 mm 0.00 in0.0 mm 0.07 in1.8 mm
02:00 PM 16.0°F-8.9°C 12.6°F-10.8°C 86% 7.0 mph ENE11.3 kmh ENE 9.0 mph14.5 kmh 30.25 in1024.4 mb 0.00 in0.0 mm 0.00 in0.0 mm 0.07 in1.8 mm
02:15 PM 16.1°F-8.8°C 12.7°F-10.7°C 86% 3.0 mph ENE4.8 kmh ENE 8.0 mph12.9 kmh 30.23 in1023.7 mb 0.00 in0.0 mm 0.00 in0.0 mm 0.07 in1.8 mm
02:30 PM 16.1°F-8.8°C 12.4°F-10.9°C 85% Calm Calm 6.0 mph9.7 kmh 30.23 in1023.7 mb 0.00 in0.0 mm 0.00 in0.0 mm 0.07 in1.8 mm
02:45 PM 15.8°F-9.0°C 11.6°F-11.3°C 83% Calm Calm 9.0 mph14.5 kmh 30.22 in1023.4 mb 0.00 in0.0 mm 0.00 in0.0 mm 0.07 in1.8 mm
03:00 PM 15.7°F-9.1°C 10.9°F-11.7°C 81% Calm Calm 7.0 mph11.3 kmh 30.22 in1023.4 mb 0.00 in0.0 mm 0.00 in0.0 mm 0.07 in1.8 mm
03:15 PM 15.4°F-9.2°C 10.4°F-12.0°C 80% 1.0 mph E1.6 kmh E 7.0 mph11.3 kmh 30.21 in1023.0 mb 0.00 in0.0 mm 0.00 in0.0 mm 0.07 in1.8 mm
03:30 PM 15.4°F-9.2°C 10.4°F-12.0°C 80% 5.0 mph WNW8.0 kmh WNW 6.0 mph9.7 kmh 30.21 in1023.0 mb 0.00 in0.0 mm 0.00 in0.0 mm 0.07 in1.8 mm
03:45 PM 15.3°F-9.3°C 10.3°F-12.1°C 80% 2.0 mph NE3.2 kmh NE 8.0 mph12.9 kmh 30.20 in1022.7 mb 0.00 in0.0 mm 0.00 in0.0 mm 0.07 in1.8 mm
04:00 PM 14.9°F-9.5°C 9.6°F-12.4°C 79% 5.0 mph ENE8.0 kmh ENE 11.0 mph17.7 kmh 30.20 in1022.7 mb 0.00 in0.0 mm 0.00 in0.0 mm 0.07 in1.8 mm
04:15 PM 14.6°F-9.7°C 9.6°F-12.4°C 80% Calm Calm 8.0 mph12.9 kmh 30.20 in1022.7 mb 0.00 in0.0 mm 0.00 in0.0 mm 0.07 in1.8 mm
04:30 PM 14.3°F-9.8°C 9.8°F-12.3°C 82% Calm Calm 8.0 mph12.9 kmh 30.19 in1022.4 mb 0.00 in0.0 mm 0.00 in0.0 mm 0.07 in1.8 mm
04:45 PM 13.7°F-10.2°C 9.8°F-12.3°C 84% Calm Calm 6.0 mph9.7 kmh 30.19 in1022.4 mb 0.00 in0.0 mm 0.00 in0.0 mm 0.07 in1.8 mm
05:00 PM 12.8°F-10.7°C 9.2°F-12.7°C 85% 3.0 mph NW4.8 kmh NW 7.0 mph11.3 kmh 30.19 in1022.4 mb 0.00 in0.0 mm 0.00 in0.0 mm 0.07 in1.8 mm
05:15 PM 12.1°F-11.1°C 8.5°F-13.1°C 85% 1.0 mph N1.6 kmh N 8.0 mph12.9 kmh 30.19 in1022.4 mb 0.00 in0.0 mm 0.00 in0.0 mm 0.07 in1.8 mm
05:30 PM 11.3°F-11.5°C 7.9°F-13.4°C 86% 4.0 mph N6.4 kmh N 8.0 mph12.9 kmh 30.18 in1022.0 mb 0.00 in0.0 mm 0.00 in0.0 mm 0.07 in1.8 mm
05:45 PM 10.7°F-11.8°C 7.1°F-13.8°C 85% 1.0 mph NW1.6 kmh NW 10.0 mph16.1 kmh 30.19 in1022.4 mb 0.00 in0.0 mm 0.00 in0.0 mm 0.07 in1.8 mm
06:00 PM 10.0°F-12.2°C 6.4°F-14.2°C 85% 2.0 mph NNW3.2 kmh NNW 6.0 mph9.7 kmh 30.20 in1022.7 mb 0.00 in0.0 mm 0.00 in0.0 mm 0.07 in1.8 mm
06:15 PM 9.9°F-12.3°C 6.6°F-14.1°C 86% 1.0 mph N1.6 kmh N 8.0 mph12.9 kmh 30.19 in1022.4 mb 0.00 in0.0 mm 0.00 in0.0 mm 0.07 in1.8 mm
06:30 PM 9.7°F-12.4°C 6.4°F-14.2°C 86% 5.0 mph N8.0 kmh N 8.0 mph12.9 kmh 30.19 in1022.4 mb 0.00 in0.0 mm 0.00 in0.0 mm 0.07 in1.8 mm
06:45 PM 9.4°F-12.6°C 5.8°F-14.6°C 85% 2.0 mph N3.2 kmh N 8.0 mph12.9 kmh 30.18 in1022.0 mb 0.00 in0.0 mm 0.00 in0.0 mm 0.07 in1.8 mm
07:00 PM 8.8°F-12.9°C 5.2°F-14.9°C 85% 2.0 mph N3.2 kmh N 10.0 mph16.1 kmh 30.18 in1022.0 mb 0.00 in0.0 mm 0.00 in0.0 mm 0.07 in1.8 mm
07:15 PM 8.0°F-13.3°C 4.4°F-15.3°C 85% 7.0 mph N11.3 kmh N 9.0 mph14.5 kmh 30.19 in1022.4 mb 0.00 in0.0 mm 0.00 in0.0 mm 0.07 in1.8 mm
07:30 PM 7.7°F-13.5°C 4.4°F-15.3°C 86% 5.0 mph NNW8.0 kmh NNW 9.0 mph14.5 kmh 30.19 in1022.4 mb 0.00 in0.0 mm 0.00 in0.0 mm 0.07 in1.8 mm
07:45 PM 7.1°F-13.8°C 3.8°F-15.7°C 86% 3.0 mph NNW4.8 kmh NNW 9.0 mph14.5 kmh 30.19 in1022.4 mb 0.00 in0.0 mm 0.00 in0.0 mm 0.07 in1.8 mm
08:00 PM 6.8°F-14.0°C 3.5°F-15.8°C 86% 3.0 mph N4.8 kmh N 9.0 mph14.5 kmh 30.20 in1022.7 mb 0.00 in0.0 mm 0.00 in0.0 mm 0.07 in1.8 mm
08:15 PM 6.5°F-14.2°C 3.2°F-16.0°C 86% 4.0 mph N6.4 kmh N 9.0 mph14.5 kmh 30.20 in1022.7 mb 0.00 in0.0 mm 0.00 in0.0 mm 0.07 in1.8 mm
08:30 PM 6.3°F-14.3°C 3.0°F-16.1°C 86% 5.0 mph NW8.0 kmh NW 7.0 mph11.3 kmh 30.19 in1022.4 mb 0.00 in0.0 mm 0.00 in0.0 mm 0.07 in1.8 mm
08:45 PM 6.0°F-14.4°C 2.7°F-16.3°C 86% 7.0 mph NNW11.3 kmh NNW 9.0 mph14.5 kmh 30.18 in1022.0 mb 0.00 in0.0 mm 0.00 in0.0 mm 0.07 in1.8 mm
09:00 PM 5.5°F-14.7°C 2.5°F-16.4°C 87% 5.0 mph NW8.0 kmh NW 11.0 mph17.7 kmh 30.18 in1022.0 mb 0.00 in0.0 mm 0.00 in0.0 mm 0.07 in1.8 mm
09:15 PM 4.9°F-15.1°C 1.6°F-16.9°C 86% 8.0 mph NW12.9 kmh NW 11.0 mph17.7 kmh 30.17 in1021.7 mb 0.00 in0.0 mm 0.00 in0.0 mm 0.07 in1.8 mm
09:30 PM 4.8°F-15.1°C 1.8°F-16.8°C 87% 4.0 mph N6.4 kmh N 9.0 mph14.5 kmh 30.17 in1021.7 mb 0.00 in0.0 mm 0.00 in0.0 mm 0.07 in1.8 mm
09:45 PM 4.4°F-15.3°C 1.4°F-17.0°C 87% 5.0 mph NNW8.0 kmh NNW 8.0 mph12.9 kmh 30.16 in1021.3 mb 0.00 in0.0 mm 0.00 in0.0 mm 0.07 in1.8 mm
10:00 PM 4.4°F-15.3°C 1.4°F-17.0°C 87% 4.0 mph NNW6.4 kmh NNW 8.0 mph12.9 kmh 30.17 in1021.7 mb 0.00 in0.0 mm 0.00 in0.0 mm 0.07 in1.8 mm
10:15 PM 4.4°F-15.3°C 1.4°F-17.0°C 87% 4.0 mph N6.4 kmh N 10.0 mph16.1 kmh 30.16 in1021.3 mb 0.00 in0.0 mm 0.00 in0.0 mm 0.07 in1.8 mm
10:30 PM 4.6°F-15.2°C 1.6°F-16.9°C 87% 2.0 mph N3.2 kmh N 8.0 mph12.9 kmh 30.15 in1021.0 mb 0.00 in0.0 mm 0.00 in0.0 mm 0.07 in1.8 mm
10:45 PM 4.7°F-15.2°C 1.7°F-16.8°C 87% 6.0 mph N9.7 kmh N 8.0 mph12.9 kmh 30.15 in1021.0 mb 0.00 in0.0 mm 0.00 in0.0 mm 0.07 in1.8 mm
11:00 PM 4.6°F-15.2°C 1.6°F-16.9°C 87% 3.0 mph NW4.8 kmh NW 9.0 mph14.5 kmh 30.15 in1021.0 mb 0.00 in0.0 mm 0.00 in0.0 mm 0.07 in1.8 mm
11:15 PM 4.4°F-15.3°C 1.2°F-17.1°C 86% 3.0 mph WNW4.8 kmh WNW 7.0 mph11.3 kmh 30.14 in1020.7 mb 0.00 in0.0 mm 0.00 in0.0 mm 0.07 in1.8 mm
11:30 PM 4.2°F-15.4°C 1.0°F-17.2°C 86% 1.0 mph NE1.6 kmh NE 8.0 mph12.9 kmh 30.14 in1020.7 mb 0.00 in0.0 mm 0.00 in0.0 mm 0.07 in1.8 mm
11:45 PM 4.0°F-15.6°C 0.8°F-17.3°C 86% Calm Calm 12.0 mph19.3 kmh 30.14 in1020.7 mb 0.00 in0.0 mm 0.00 in0.0 mm 0.07 in1.8 mm